Time;durP1;ratioP1;P1;durP2;ratioP2;P2;SDS_P1;SDS_P2;PMS_P1;PMS_P2;Temp;Humidity;BMP_temperature;BMP_pressure;BME280_temperature;BME280_humidity;BME280_pressure;Samples;Min_cycle;Max_cycle;Signal;HPM_P1;HPM_P2
2022/05/07 00:00:10;;;;;;;6.00;3.30;;;;;;;21.57;38.16;100092.53;345151;28;1011;-66
2022/05/07 00:00:23;;;;;;;5.50;3.10;;;;;;;21.58;38.01;100088.94;344842;28;1074;-66
2022/05/07 00:00:35;;;;;;;4.78;3.00;;;;;;;21.57;38.34;100089.88;345359;28;744;-66
2022/05/07 00:00:47;;;;;;;3.58;2.85;;;;;;;21.53;38.58;100091.88;345156;28;1200;-67
2022/05/07 00:00:59;;;;;;;3.35;2.95;;;;;;;21.52;38.71;100085.75;345110;28;1090;-67
2022/05/07 00:01:11;;;;;;;3.53;2.97;;;;;;;21.49;38.82;100086.00;345849;28;1058;-66
2022/05/07 00:01:23;;;;;;;3.85;3.15;;;;;;;21.46;38.90;100086.19;344110;28;771;-66
2022/05/07 00:01:35;;;;;;;4.57;3.17;;;;;;;21.47;38.46;100093.19;343827;28;1218;-66
2022/05/07 00:01:48;;;;;;;4.63;3.20;;;;;;;21.49;38.44;100090.41;343605;28;1057;-66
2022/05/07 00:02:00;;;;;;;4.60;3.25;;;;;;;21.47;38.41;100087.91;343532;28;1126;-66
2022/05/07 00:02:12;;;;;;;4.57;3.10;;;;;;;21.48;38.44;100081.66;341082;29;1053;-66
2022/05/07 00:02:24;;;;;;;4.47;2.90;;;;;;;21.46;38.91;100091.50;341203;29;1210;-66
2022/05/07 00:02:36;;;;;;;4.30;2.95;;;;;;;21.46;38.65;100080.06;341043;29;1084;-67
2022/05/07 00:02:49;;;;;;;4.30;3.00;;;;;;;21.45;38.55;100089.81;341121;29;1059;-66
2022/05/07 00:03:01;;;;;;;4.18;2.92;;;;;;;21.44;38.65;100087.28;341068;29;1028;-66
2022/05/07 00:03:13;;;;;;;3.88;2.80;;;;;;;21.46;38.54;100091.50;340975;29;1915;-67
2022/05/07 00:03:25;;;;;;;3.75;2.80;;;;;;;21.46;38.52;100091.50;341733;28;1280;-66
2022/05/07 00:03:37;;;;;;;3.83;2.83;;;;;;;21.47;38.70;100093.19;343937;28;1181;-66
2022/05/07 00:03:49;;;;;;;4.15;3.00;;;;;;;21.42;38.99;100084.69;344736;28;1231;-67
2022/05/07 00:04:02;;;;;;;4.18;3.08;;;;;;;21.41;38.71;100087.44;343531;28;1273;-67
2022/05/07 00:04:14;;;;;;;4.15;3.03;;;;;;;21.44;38.68;100087.28;344247;28;1002;-67
2022/05/07 00:04:27;;;;;;;3.42;3.00;;;;;;;21.41;38.82;100087.44;345159;28;985;-66
2022/05/07 00:04:39;;;;;;;4.20;3.25;;;;;;;21.40;38.56;100091.06;343290;28;1237;-66
2022/05/07 00:04:51;;;;;;;4.25;3.20;;;;;;;21.41;39.11;100092.72;343591;28;1019;-66
2022/05/07 00:05:04;;;;;;;4.57;3.28;;;;;;;21.41;39.00;100088.31;343808;28;1051;-66
2022/05/07 00:05:18;;;;;;;4.45;3.22;;;;;;;21.40;39.15;100089.25;343873;28;1047;-65
2022/05/07 00:05:31;;;;;;;4.40;3.55;;;;;;;21.44;38.90;100092.56;344344;28;1350;-66
2022/05/07 00:05:43;;;;;;;5.80;3.63;;;;;;;21.44;39.19;100087.28;345263;28;1118;-66
2022/05/07 00:05:55;;;;;;;6.88;3.47;;;;;;;21.42;39.34;100092.63;345044;28;1479;-65
2022/05/07 00:06:07;;;;;;;7.13;3.50;;;;;;;21.43;39.13;100085.56;345175;28;1169;-66
2022/05/07 00:06:19;;;;;;;6.65;3.38;;;;;;;21.45;39.17;100089.81;345064;28;1461;-66
2022/05/07 00:06:31;;;;;;;4.90;3.30;;;;;;;21.42;38.74;100084.69;345569;28;1136;-66
2022/05/07 00:06:43;;;;;;;4.75;3.58;;;;;;;21.46;39.05;100086.19;344563;28;1079;-66
2022/05/07 00:06:55;;;;;;;5.75;3.80;;;;;;;21.44;38.82;100088.09;344912;28;1063;-66
2022/05/07 00:07:07;;;;;;;6.10;3.80;;;;;;;21.46;38.61;100088.00;345004;28;1208;-67
2022/05/07 00:07:19;;;;;;;5.47;3.78;;;;;;;21.48;38.60;100088.75;344899;28;1764;-67
2022/05/07 00:07:31;;;;;;;5.15;3.75;;;;;;;21.48;38.83;100081.66;344633;28;1262;-66
2022/05/07 00:07:43;;;;;;;5.88;4.35;;;;;;;21.51;38.47;100085.88;345083;28;1075;-67
2022/05/07 00:07:55;;;;;;;6.50;4.85;;;;;;;21.50;38.35;100092.13;344960;28;1242;-66
2022/05/07 00:08:07;;;;;;;6.63;5.05;;;;;;;21.48;38.49;100080.81;345208;28;1042;-67
2022/05/07 00:08:19;;;;;;;7.57;5.35;;;;;;;21.51;38.48;100088.50;344841;28;1043;-66
2022/05/07 00:08:31;;;;;;;8.68;5.65;;;;;;;21.51;38.53;100089.38;345034;28;1234;-66
2022/05/07 00:08:43;;;;;;;9.65;6.22;;;;;;;21.51;38.51;100089.38;345321;28;934;-67
2022/05/07 00:08:55;;;;;;;9.35;6.40;;;;;;;21.52;38.76;100085.75;345191;28;1082;-67
2022/05/07 00:09:07;;;;;;;9.63;6.22;;;;;;;21.53;38.50;100086.59;344006;28;1205;-67
2022/05/07 00:09:19;;;;;;;10.02;6.40;;;;;;;21.52;38.73;100085.75;343651;28;1241;-67
2022/05/07 00:09:32;;;;;;;10.00;6.82;;;;;;;21.50;38.92;100087.66;343502;28;1031;-66
2022/05/07 00:09:44;;;;;;;11.57;7.47;;;;;;;21.49;39.23;100085.13;343491;28;1011;-66
2022/05/07 00:09:56;;;;;;;12.27;7.80;;;;;;;21.51;38.92;100089.38;343409;28;1212;-67
2022/05/07 00:10:09;;;;;;;12.32;8.07;;;;;;;21.53;38.94;100087.47;343670;28;1091;-66
2022/05/07 00:10:22;;;;;;;13.25;8.57;;;;;;;21.50;39.01;100085.03;343404;28;1302;-66
2022/05/07 00:10:34;;;;;;;14.57;9.15;;;;;;;21.51;38.84;100084.09;343540;28;1049;-67
2022/05/07 00:10:47;;;;;;;15.15;9.85;;;;;;;21.48;39.40;100084.28;343893;28;1179;-66
2022/05/07 00:10:59;;;;;;;14.80;9.82;;;;;;;21.48;39.23;100084.28;344409;28;1357;-66
2022/05/07 00:11:15;;;;;;;15.20;9.82;;;;;;;21.49;39.17;100086.00;344911;28;1231;-66
2022/05/07 00:11:27;;;;;;;14.75;10.13;;;;;;;21.48;38.87;100083.44;345130;28;1091;-67
2022/05/07 00:11:39;;;;;;;13.98;9.98;;;;;;;21.47;38.60;100081.75;345820;28;1106;-67
2022/05/07 00:11:51;;;;;;;14.27;9.88;;;;;;;21.43;38.98;100078.50;345161;28;1046;-67
2022/05/07 00:12:04;;;;;;;13.57;9.30;;;;;;;21.44;38.87;100077.53;345055;28;1051;-66
2022/05/07 00:12:16;;;;;;;11.88;8.25;;;;;;;21.38;38.57;100083.22;345023;28;1322;-66
2022/05/07 00:12:28;;;;;;;10.70;7.30;;;;;;;21.36;38.99;100082.50;344883;28;1410;-67
2022/05/07 00:12:41;;;;;;;10.27;6.68;;;;;;;21.35;38.71;100084.28;345024;28;1082;-66
2022/05/07 00:12:53;;;;;;;9.38;6.07;;;;;;;21.39;38.76;100082.28;344884;28;1206;-67
2022/05/07 00:13:05;;;;;;;10.00;5.95;;;;;;;21.41;38.78;100083.03;343887;28;1199;-66
2022/05/07 00:13:17;;;;;;;9.70;6.13;;;;;;;21.40;38.65;100078.66;342430;28;1157;-67
2022/05/07 00:13:29;;;;;;;9.15;5.85;;;;;;;21.38;38.50;100077.94;342321;28;1371;-67
2022/05/07 00:13:42;;;;;;;8.73;5.72;;;;;;;21.34;38.33;100082.59;342517;28;1307;-66
2022/05/07 00:13:54;;;;;;;9.27;5.60;;;;;;;21.38;38.26;100085.88;342422;28;1334;-66
2022/05/07 00:14:06;;;;;;;8.18;5.38;;;;;;;21.37;38.25;100078.91;342602;28;1255;-67
2022/05/07 00:14:18;;;;;;;7.53;5.15;;;;;;;21.32;38.30;100079.22;341851;29;1099;-66
2022/05/07 00:14:30;;;;;;;8.10;5.38;;;;;;;21.29;38.40;100078.59;341898;28;1313;-66
2022/05/07 00:14:43;;;;;;;9.32;5.60;;;;;;;21.29;38.56;100083.88;342383;28;1216;-66
2022/05/07 00:14:55;;;;;;;8.80;5.53;;;;;;;21.26;38.56;100078.81;342212;28;1020;-66
2022/05/07 00:15:08;;;;;;;8.07;4.95;;;;;;;21.25;38.83;100077.09;342680;28;1051;-67
2022/05/07 00:15:20;;;;;;;7.18;4.38;;;;;;;21.30;38.74;100080.28;342901;28;1188;-66
2022/05/07 00:15:32;;;;;;;7.82;4.20;;;;;;;21.29;38.75;100079.44;343711;28;1094;-66
2022/05/07 00:18:01;;;;;;;7.40;4.25;;;;;;;21.28;38.94;100077.72;342144;28;1086;-66
2022/05/07 00:18:01;;;;;;;4.22;3.40;;;;;;;21.28;38.70;100076.91;345200;28;1318;-67
2022/05/07 00:18:13;;;;;;;5.57;3.80;;;;;;;21.27;38.84;100075.19;345427;28;1201;-66
2022/05/07 00:18:25;;;;;;;5.95;4.07;;;;;;;21.26;39.01;100077.00;345292;28;1316;-66
2022/05/07 00:18:37;;;;;;;7.13;4.20;;;;;;;21.29;38.90;100081.25;345358;28;1189;-66
2022/05/07 00:18:49;;;;;;;6.20;3.80;;;;;;;21.29;38.91;100083.88;345334;28;1179;-67
2022/05/07 00:19:02;;;;;;;6.53;3.72;;;;;;;21.26;38.56;100078.81;345047;28;1054;-66
2022/05/07 00:19:14;;;;;;;5.25;3.70;;;;;;;21.26;38.61;100076.16;345346;28;1076;-65
2022/05/07 00:19:26;;;;;;;5.22;3.65;;;;;;;21.25;38.68;100074.44;345500;28;2018;-66
2022/05/07 00:19:38;;;;;;;6.05;3.63;;;;;;;21.26;38.32;100084.94;345075;28;1124;-66
2022/05/07 00:19:50;;;;;;;5.88;3.70;;;;;;;21.28;38.45;100076.91;344963;28;1136;-66
2022/05/07 00:20:03;;;;;;;5.22;3.97;;;;;;;21.31;38.37;100076.69;345015;28;1231;-66
2022/05/07 00:20:15;;;;;;;5.55;4.07;;;;;;;21.31;38.76;100076.69;344858;28;1179;-66
2022/05/07 00:20:28;;;;;;;7.40;4.10;;;;;;;21.33;38.38;100077.44;344507;28;1477;-67
2022/05/07 00:20:40;;;;;;;7.55;4.03;;;;;;;21.32;38.55;100078.38;344184;28;2022;-66
2022/05/07 00:20:52;;;;;;;7.03;4.20;;;;;;;21.29;38.64;100075.97;343665;28;1090;-66
2022/05/07 00:21:04;;;;;;;6.22;4.20;;;;;;;21.26;38.76;100078.81;343805;28;1059;-67
2022/05/07 00:21:16;;;;;;;6.95;4.00;;;;;;;21.25;38.63;100083.25;343659;28;1076;-66
2022/05/07 00:21:29;;;;;;;7.75;4.80;;;;;;;21.24;39.15;100080.72;343415;28;1211;-66
2022/05/07 00:21:41;;;;;;;7.53;5.05;;;;;;;21.24;38.73;100076.25;343889;28;1104;-67
2022/05/07 00:21:53;;;;;;;7.00;4.78;;;;;;;21.24;38.63;100080.72;343828;28;1241;-66
2022/05/07 00:22:05;;;;;;;5.88;4.05;;;;;;;21.27;38.77;100081.34;344352;28;1200;-67
2022/05/07 00:22:17;;;;;;;5.13;3.90;;;;;;;21.26;38.54;100077.00;343959;28;2056;-67
2022/05/07 00:22:29;;;;;;;5.15;4.10;;;;;;;21.26;38.72;100073.53;344901;28;1194;-66
2022/05/07 00:22:41;;;;;;;4.78;3.92;;;;;;;21.28;38.34;100082.19;344236;28;1476;-66
2022/05/07 00:22:53;;;;;;;5.65;4.07;;;;;;;21.28;38.74;100082.19;343864;28;763;-66
2022/05/07 00:23:05;;;;;;;5.45;4.00;;;;;;;21.28;38.47;100082.19;343872;28;1019;-66
2022/05/07 00:23:18;;;;;;;5.13;4.00;;;;;;;21.26;38.75;100078.81;343865;28;1038;-66
2022/05/07 00:23:30;;;;;;;5.07;3.83;;;;;;;21.29;38.58;100079.44;344837;28;1033;-67
2022/05/07 00:23:43;;;;;;;5.55;4.07;;;;;;;21.32;38.59;100078.38;345337;28;1104;-66
2022/05/07 00:23:57;;;;;;;6.75;4.53;;;;;;;21.32;38.72;100073.09;345331;28;1319;-66
2022/05/07 00:24:09;;;;;;;7.38;4.68;;;;;;;21.31;38.80;100081.97;345233;28;1030;-66
2022/05/07 00:24:21;;;;;;;7.03;4.40;;;;;;;21.28;38.77;100082.19;345663;28;1025;-67
2022/05/07 00:24:33;;;;;;;6.18;4.53;;;;;;;21.28;38.90;100076.91;345100;28;1018;-66
2022/05/07 00:24:45;;;;;;;7.93;4.95;;;;;;;21.29;38.88;100083.88;346098;28;1095;-66
2022/05/07 00:24:57;;;;;;;8.68;5.55;;;;;;;21.29;38.95;100078.59;344761;28;1903;-66
2022/05/07 00:25:10;;;;;;;9.90;5.75;;;;;;;21.30;38.95;100075.81;344956;28;1909;-67
2022/05/07 00:25:22;;;;;;;9.45;5.60;;;;;;;21.27;39.31;100080.47;344897;28;1023;-66
2022/05/07 00:25:34;;;;;;;8.82;5.30;;;;;;;21.22;39.39;100077.34;343620;28;1366;-67
2022/05/07 00:25:46;;;;;;;8.05;5.20;;;;;;;21.21;39.27;100083.56;343734;28;1281;-66
2022/05/07 00:25:58;;;;;;;7.60;5.10;;;;;;;21.22;39.14;100078.16;343235;28;1933;-66
2022/05/07 00:26:10;;;;;;;7.57;5.30;;;;;;;21.25;38.94;100079.75;342374;28;1043;-67
2022/05/07 00:26:23;;;;;;;6.20;5.13;;;;;;;21.27;38.97;100080.47;342963;28;2018;-67
2022/05/07 00:26:35;;;;;;;6.93;5.13;;;;;;;21.27;38.86;100075.19;343723;28;1133;-67
2022/05/07 00:26:47;;;;;;;8.15;5.28;;;;;;;21.29;38.98;100081.25;343827;28;1014;-67
2022/05/07 00:26:59;;;;;;;9.07;5.80;;;;;;;21.30;38.83;100080.28;343882;28;1170;-66
2022/05/07 00:27:13;;;;;;;10.20;6.38;;;;;;;21.32;38.82;100083.66;345136;28;1162;-66
2022/05/07 00:27:25;;;;;;;10.02;6.03;;;;;;;21.32;38.87;100079.22;345221;28;1697;-66
2022/05/07 00:27:38;;;;;;;9.73;5.78;;;;;;;21.27;38.87;100080.47;344433;28;1051;-67
2022/05/07 00:27:50;;;;;;;7.20;5.00;;;;;;;21.26;38.91;100079.66;344060;28;1064;-66
2022/05/07 00:28:02;;;;;;;6.85;4.72;;;;;;;21.22;38.97;100083.47;345092;28;1236;-66
2022/05/07 00:28:14;;;;;;;6.25;4.35;;;;;;;21.24;38.80;100076.25;345202;28;1141;-66
2022/05/07 00:28:26;;;;;;;5.45;4.30;;;;;;;21.23;38.99;100076.34;343826;28;1047;-66
2022/05/07 00:28:38;;;;;;;5.78;4.20;;;;;;;21.22;38.97;100080.81;343452;28;1020;-66
2022/05/07 00:28:50;;;;;;;5.43;4.05;;;;;;;21.20;39.25;100073.94;343374;28;1037;-66
2022/05/07 00:29:02;;;;;;;5.93;4.35;;;;;;;21.19;39.23;100081.03;342256;28;1062;-66
2022/05/07 00:29:14;;;;;;;6.10;4.55;;;;;;;21.20;39.02;100081.88;342556;28;1031;-66
2022/05/07 00:29:26;;;;;;;6.00;4.57;;;;;;;21.17;39.02;100082.94;341213;28;1040;-66
2022/05/07 00:29:38;;;;;;;5.30;4.30;;;;;;;21.18;38.73;100081.16;341057;29;1032;-67
2022/05/07 00:29:50;;;;;;;5.35;4.38;;;;;;;21.15;38.70;100077.75;341500;29;1157;-65
2022/05/07 00:30:04;;;;;;;5.90;4.13;;;;;;;21.14;38.90;100076.06;341492;28;1040;-66
2022/05/07 00:30:16;;;;;;;6.97;4.20;;;;;;;21.14;39.12;100078.69;342317;28;1101;-66
2022/05/07 00:30:28;;;;;;;6.25;3.97;;;;;;;21.12;38.77;100077.97;342315;28;1223;-66
2022/05/07 00:30:40;;;;;;;4.93;3.75;;;;;;;21.14;38.86;100076.06;342349;28;1132;-66
2022/05/07 00:30:52;;;;;;;4.05;3.55;;;;;;;21.17;38.98;100079.44;342387;28;1084;-65
2022/05/07 00:31:05;;;;;;;4.00;3.55;;;;;;;21.15;38.95;100082.22;342532;28;1031;-66
2022/05/07 00:31:17;;;;;;;5.20;3.85;;;;;;;21.14;38.89;100078.69;343626;28;1223;-67
2022/05/07 00:31:29;;;;;;;5.60;3.83;;;;;;;21.13;38.96;100079.66;342984;28;1247;-67
2022/05/07 00:31:41;;;;;;;5.72;3.83;;;;;;;21.13;38.72;100078.84;342711;28;749;-66
2022/05/07 00:31:54;;;;;;;4.95;3.53;;;;;;;21.10;38.98;100085.16;343324;28;1141;-67
2022/05/07 00:32:07;;;;;;;4.68;3.58;;;;;;;21.12;38.80;100071.84;343718;28;1079;-66
2022/05/07 00:32:19;;;;;;;5.28;3.75;;;;;;;21.13;38.34;100082.31;344357;28;1907;-66
2022/05/07 00:32:31;;;;;;;9.70;3.95;;;;;;;21.12;38.80;100080.59;343915;28;2363;-66
2022/05/07 00:32:44;;;;;;;8.68;3.55;;;;;;;21.10;39.13;100085.16;343782;28;1091;-66
2022/05/07 00:32:56;;;;;;;5.90;3.25;;;;;;;21.06;38.86;100086.31;342414;28;960;-66
2022/05/07 00:33:08;;;;;;;5.13;3.53;;;;;;;21.05;38.96;100091.75;342972;28;1059;-67
2022/05/07 00:33:20;;;;;;;5.93;3.60;;;;;;;21.04;38.94;100077.66;343589;28;1918;-66
2022/05/07 00:33:32;;;;;;;5.40;3.58;;;;;;;21.03;38.92;100083.91;343485;28;1059;-67
2022/05/07 00:33:43;;;;;;;5.00;3.42;;;;;;;21.03;38.88;100083.91;343756;28;1039;-66
2022/05/07 00:33:55;;;;;;;4.75;3.45;;;;;;;21.03;38.77;100078.63;343448;28;1321;-66
2022/05/07 00:34:14;;;;;;;4.22;3.30;;;;;;;21.02;38.90;100084.84;342593;28;1139;-66
2022/05/07 00:34:26;;;;;;;4.80;3.38;;;;;;;21.01;39.22;100080.53;342522;28;1080;-66
2022/05/07 00:34:38;;;;;;;5.30;3.50;;;;;;;21.03;39.20;100083.06;343406;28;1116;-66
2022/05/07 00:34:50;;;;;;;5.18;3.53;;;;;;;21.03;39.60;100083.06;343676;28;1290;-66
2022/05/07 00:35:02;;;;;;;4.43;3.55;;;;;;;21.01;39.23;100085.81;344774;28;1035;-67
2022/05/07 00:35:16;;;;;;;5.13;3.67;;;;;;;20.95;39.47;100081.78;345685;28;1084;-66
2022/05/07 00:35:28;;;;;;;5.43;3.85;;;;;;;20.98;39.00;100086.00;344752;28;1846;-65
2022/05/07 00:35:40;;;;;;;5.13;4.00;;;;;;;20.98;39.21;100082.53;345063;28;1210;-65
2022/05/07 00:35:52;;;;;;;4.68;3.58;;;;;;;20.99;39.32;100078.91;345151;28;1078;-65
2022/05/07 00:36:04;;;;;;;4.50;3.15;;;;;;;20.99;39.06;100082.44;343717;28;1062;-65
2022/05/07 00:36:16;;;;;;;5.10;3.08;;;;;;;20.99;38.91;100087.72;343582;28;1030;-66
2022/05/07 00:36:28;;;;;;;5.25;3.25;;;;;;;21.02;39.08;100086.66;343875;28;1985;-66
2022/05/07 00:36:40;;;;;;;5.20;3.42;;;;;;;21.02;39.20;100087.50;343571;28;1059;-66
2022/05/07 00:36:52;;;;;;;5.28;3.35;;;;;;;21.04;38.98;100082.94;343780;28;1015;-66
2022/05/07 00:37:05;;;;;;;5.63;3.42;;;;;;;21.05;38.94;100083.81;343584;28;1191;-66
2022/05/07 00:37:17;;;;;;;7.95;3.40;;;;;;;21.05;38.92;100076.72;343564;28;1056;-66
2022/05/07 00:37:29;;;;;;;7.10;3.42;;;;;;;21.04;38.91;100085.59;343765;28;1177;-66
2022/05/07 00:37:41;;;;;;;6.40;3.40;;;;;;;21.06;38.69;100083.69;344140;28;1205;-66
2022/05/07 00:37:53;;;;;;;5.32;3.50;;;;;;;21.04;38.70;100084.75;344077;28;1161;-66
2022/05/07 00:38:05;;;;;;;5.70;3.38;;;;;;;21.02;39.01;100090.13;343775;28;1208;-66
2022/05/07 00:38:17;;;;;;;5.60;3.58;;;;;;;21.01;39.09;100084.97;343903;28;1589;-66
2022/05/07 00:38:29;;;;;;;5.53;3.63;;;;;;;20.95;38.85;100084.44;344921;28;1244;-66
2022/05/07 00:38:42;;;;;;;4.18;3.50;;;;;;;20.93;39.01;100082.84;344889;28;1062;-66
2022/05/07 00:38:54;;;;;;;4.30;3.47;;;;;;;20.95;38.86;100080.94;345032;28;1176;-66
2022/05/07 00:39:06;;;;;;;4.93;3.38;;;;;;;20.92;38.90;100084.63;345375;28;724;-67
2022/05/07 00:39:18;;;;;;;5.35;3.33;;;;;;;20.92;39.18;100086.44;343752;28;1075;-66
2022/05/07 00:39:30;;;;;;;6.22;3.38;;;;;;;20.94;39.03;100084.53;343670;28;1205;-66
2022/05/07 00:39:42;;;;;;;5.95;3.53;;;;;;;20.91;38.92;100077.66;343636;28;1012;-66
2022/05/07 00:39:54;;;;;;;6.20;3.35;;;;;;;20.89;39.02;100082.22;344193;28;1038;-66
2022/05/07 00:40:06;;;;;;;4.72;3.22;;;;;;;20.88;39.00;100079.66;345125;28;1071;-67
2022/05/07 00:40:18;;;;;;;4.57;3.10;;;;;;;20.87;38.98;100080.63;345477;28;1535;-66
2022/05/07 00:40:30;;;;;;;4.07;2.97;;;;;;;20.83;39.07;100082.63;344003;28;1077;-66
2022/05/07 00:40:42;;;;;;;3.80;2.90;;;;;;;20.81;39.08;100078.41;343948;28;1149;-66
2022/05/07 00:40:55;;;;;;;3.80;3.00;;;;;;;20.80;39.18;100084.63;343662;28;1159;-66
2022/05/07 00:41:07;;;;;;;4.50;3.17;;;;;;;20.82;39.03;100080.94;344963;28;1573;-66
2022/05/07 00:41:19;;;;;;;5.32;3.33;;;;;;;20.82;39.02;100085.38;344995;28;1043;-66
2022/05/07 00:41:31;;;;;;;5.50;3.40;;;;;;;20.86;39.17;100081.56;345117;28;1076;-66
2022/05/07 00:41:43;;;;;;;5.47;3.40;;;;;;;20.86;38.94;100086.84;344944;28;1015;-66
2022/05/07 00:41:55;;;;;;;4.72;3.40;;;;;;;20.85;38.85;100082.53;345121;28;1031;-67
2022/05/07 00:42:07;;;;;;;3.97;3.33;;;;;;;20.88;39.06;100074.38;344933;28;2085;-67
2022/05/07 00:42:20;;;;;;;4.10;3.25;;;;;;;20.84;38.65;100083.47;345289;28;1878;-67
2022/05/07 00:42:32;;;;;;;4.15;3.10;;;;;;;20.84;39.10;100080.84;344966;28;1281;-66
2022/05/07 00:42:44;;;;;;;4.78;3.20;;;;;;;20.82;39.26;100085.38;345056;28;1110;-67
2022/05/07 00:42:56;;;;;;;5.05;3.00;;;;;;;20.81;38.98;100078.41;345428;28;2280;-67
2022/05/07 00:43:08;;;;;;;6.35;2.95;;;;;;;20.77;39.17;100085.69;345266;28;1844;-67
2022/05/07 00:43:20;;;;;;;7.55;3.05;;;;;;;20.73;38.97;100085.06;344897;28;1781;-67
2022/05/07 00:43:35;;;;;;;6.15;3.25;;;;;;;20.70;39.21;100087.88;345183;28;1094;-67
2022/05/07 00:43:47;;;;;;;5.75;3.65;;;;;;;20.64;39.13;100083.03;345004;28;1110;-67
2022/05/07 00:43:59;;;;;;;6.28;3.70;;;;;;;20.63;39.12;100081.34;345027;28;1395;-67
2022/05/07 00:44:11;;;;;;;6.63;3.83;;;;;;;20.65;38.88;100078.59;345210;28;1229;-67
2022/05/07 00:44:23;;;;;;;6.88;4.00;;;;;;;20.59;39.30;100084.31;343311;28;2209;-67
2022/05/07 00:44:35;;;;;;;7.78;4.00;;;;;;;20.59;39.62;100085.16;342441;28;1107;-67
2022/05/07 00:44:47;;;;;;;5.88;3.63;;;;;;;20.54;39.24;100084.56;343568;28;1107;-67
2022/05/07 00:44:59;;;;;;;5.15;3.47;;;;;;;20.55;39.33;100083.63;342956;28;1920;-67
2022/05/07 00:45:11;;;;;;;4.70;3.28;;;;;;;20.58;39.28;100087.84;343524;28;1186;-67
2022/05/07 00:45:23;;;;;;;4.35;3.47;;;;;;;20.52;39.36;100089.97;343358;28;1860;-67
2022/05/07 00:45:36;;;;;;;4.30;3.55;;;;;;;20.55;39.24;100088.91;344961;28;733;-66
2022/05/07 00:45:50;;;;;;;4.93;3.57;;;;;;;20.58;38.95;100083.41;342308;28;1131;-67
2022/05/07 00:46:02;;;;;;;6.68;3.60;;;;;;;20.61;39.04;100090.34;342457;28;1108;-66
2022/05/07 00:46:15;;;;;;;7.10;3.60;;;;;;;20.53;39.35;100090.81;342304;28;1042;-66
2022/05/07 00:46:28;;;;;;;6.00;3.47;;;;;;;20.53;39.20;100081.09;344158;28;1209;-67
2022/05/07 00:46:40;;;;;;;4.85;3.45;;;;;;;20.53;39.23;100086.38;345017;28;1144;-67
2022/05/07 00:46:52;;;;;;;4.40;3.42;;;;;;;20.54;39.42;100087.22;344939;28;1895;-67
2022/05/07 00:47:12;;;;;;;4.07;3.33;;;;;;;20.48;39.31;100085.84;343476;28;1016;-67
2022/05/07 00:47:26;;;;;;;5.70;3.55;;;;;;;20.47;39.35;100092.06;343627;28;1891;-66
2022/05/07 00:47:39;;;;;;;6.72;3.70;;;;;;;20.45;39.43;100083.41;342398;28;1791;-66
2022/05/07 00:47:51;;;;;;;5.30;3.55;;;;;;;20.44;39.32;100086.13;342411;28;1155;-66
2022/05/07 00:48:03;;;;;;;5.05;3.53;;;;;;;20.41;39.47;100081.91;343142;28;1019;-66
2022/05/07 00:48:15;;;;;;;5.30;3.60;;;;;;;20.37;39.33;100088.34;346094;28;966;-66
2022/05/07 00:48:28;;;;;;;5.35;3.55;;;;;;;20.42;39.23;100088.03;343317;28;1111;-66
2022/05/07 00:48:40;;;;;;;4.90;3.50;;;;;;;20.42;39.24;100080.94;344033;28;791;-66
2022/05/07 00:48:53;;;;;;;5.07;3.50;;;;;;;20.45;39.28;100093.97;343523;28;1031;-65
2022/05/07 00:49:06;;;;;;;6.05;3.70;;;;;;;20.49;39.19;100084.03;344012;28;1178;-67
2022/05/07 00:49:19;;;;;;;5.78;3.78;;;;;;;20.49;39.17;100078.75;345146;28;1212;-67
2022/05/07 00:49:31;;;;;;;5.53;3.72;;;;;;;20.45;39.03;100087.84;344607;28;1248;-66
2022/05/07 00:49:48;;;;;;;6.13;3.90;;;;;;;20.42;39.49;100085.38;344725;28;1897;-66
2022/05/07 00:51:36;;;;;;;4.45;3.60;;;;;;;20.39;39.85;100082.97;343791;28;1059;-67
2022/05/07 00:51:48;;;;;;;6.05;3.80;;;;;;;20.40;39.20;100090.75;344761;28;1182;-66
2022/05/07 00:52:00;;;;;;;6.30;3.80;;;;;;;20.37;39.29;100076.94;345192;28;1117;-67
2022/05/07 00:52:13;;;;;;;5.30;3.55;;;;;;;20.37;39.34;100079.59;345215;28;1030;-66
2022/05/07 00:52:25;;;;;;;4.60;3.53;;;;;;;20.35;39.16;100083.16;345104;28;1175;-67
2022/05/07 00:52:37;;;;;;;4.32;3.40;;;;;;;20.34;39.10;100084.13;345177;28;1778;-66
2022/05/07 00:52:49;;;;;;;4.38;3.50;;;;;;;20.32;39.23;100077.22;345320;28;1281;-66
2022/05/07 00:53:01;;;;;;;5.15;3.47;;;;;;;20.33;39.14;100078.94;345108;28;1195;-66
2022/05/07 00:53:13;;;;;;;4.50;3.20;;;;;;;20.33;39.39;100084.22;345018;28;1228;-67
2022/05/07 00:53:25;;;;;;;5.18;3.20;;;;;;;20.31;39.38;100079.03;345624;28;1852;-67
2022/05/07 00:53:38;;;;;;;4.38;3.30;;;;;;;20.27;39.32;100080.19;345342;28;892;-66
2022/05/07 00:53:51;;;;;;;4.57;3.53;;;;;;;20.35;39.09;100083.16;344925;28;1078;-66
2022/05/07 00:54:05;;;;;;;5.13;3.60;;;;;;;20.35;39.35;100083.16;343807;28;1395;-66
2022/05/07 00:54:17;;;;;;;7.05;3.60;;;;;;;20.33;39.28;100077.13;342557;28;1294;-67
2022/05/07 00:54:30;;;;;;;6.20;3.40;;;;;;;20.39;38.99;100080.34;341915;28;1505;-66
2022/05/07 00:54:43;;;;;;;5.43;3.35;;;;;;;20.41;39.11;100081.06;342657;28;1532;-66
2022/05/07 00:54:55;;;;;;;4.50;3.53;;;;;;;20.41;39.11;100081.06;341256;29;850;-67
2022/05/07 00:55:09;;;;;;;4.78;3.50;;;;;;;20.41;39.04;100081.06;340896;29;1108;-66
2022/05/07 00:55:23;;;;;;;5.22;3.60;;;;;;;20.46;39.10;100078.97;342048;28;1981;-66
2022/05/07 00:55:36;;;;;;;5.25;3.67;;;;;;;20.44;39.21;100080.84;340987;29;959;-66
2022/05/07 00:55:50;;;;;;;5.28;3.60;;;;;;;20.42;39.20;100082.75;340907;29;1116;-66
2022/05/07 00:56:02;;;;;;;5.40;3.58;;;;;;;20.42;39.20;100075.66;341885;28;1056;-66
2022/05/07 00:56:15;;;;;;;5.60;3.83;;;;;;;20.42;39.09;100074.81;340966;29;1057;-67
2022/05/07 00:56:27;;;;;;;5.55;3.60;;;;;;;20.45;38.93;100072.84;341931;28;2075;-66
2022/05/07 00:56:39;;;;;;;5.93;3.78;;;;;;;20.45;38.85;100077.28;343446;28;1081;-65
2022/05/07 00:56:51;;;;;;;5.35;3.67;;;;;;;20.47;38.92;100075.38;343694;28;1188;-66
2022/05/07 00:57:04;;;;;;;4.82;3.70;;;;;;;20.42;39.13;100077.47;344962;28;1325;-67
2022/05/07 00:57:16;;;;;;;5.85;3.50;;;;;;;20.44;39.04;100078.22;344931;28;1236;-66
2022/05/07 00:57:28;;;;;;;7.05;3.35;;;;;;;20.43;38.96;100079.19;344917;28;1326;-66
2022/05/07 00:57:40;;;;;;;7.07;3.22;;;;;;;20.42;39.19;100080.09;344904;28;1047;-66
2022/05/07 00:57:54;;;;;;;6.25;3.40;;;;;;;20.41;39.17;100078.44;345095;28;1118;-67
2022/05/07 00:58:06;;;;;;;5.05;3.53;;;;;;;20.39;39.33;100077.69;345180;28;1038;-66
2022/05/07 00:58:19;;;;;;;4.82;3.45;;;;;;;20.37;39.11;100074.31;344945;28;1206;-66
2022/05/07 00:58:31;;;;;;;5.05;3.70;;;;;;;20.34;38.98;100076.19;344492;28;1186;-66
2022/05/07 00:58:43;;;;;;;5.10;3.70;;;;;;;20.37;38.88;100082.22;344371;28;1043;-66
2022/05/07 00:58:56;;;;;;;6.40;3.80;;;;;;;20.33;39.39;100079.78;343755;28;1062;-65
2022/05/07 00:59:08;;;;;;;6.32;3.60;;;;;;;20.28;39.13;100076.63;343536;28;1113;-66
2022/05/07 00:59:20;;;;;;;5.05;3.50;;;;;;;20.28;39.16;100076.63;343472;28;1059;-67
2022/05/07 00:59:32;;;;;;;4.90;3.28;;;;;;;20.27;39.27;100076.72;344480;28;1215;-66
2022/05/07 00:59:45;;;;;;;5.07;3.25;;;;;;;20.27;39.16;100077.53;344769;28;1361;-67
2022/05/07 00:59:57;;;;;;;6.82;3.50;;;;;;;20.24;39.32;100080.41;344851;28;1011;-66
2022/05/07 01:00:10;;;;;;;7.47;3.70;;;;;;;20.26;39.20;100077.63;344849;28;1179;-66
2022/05/07 01:00:23;;;;;;;6.90;3.65;;;;;;;20.24;39.20;100069.84;344785;28;1177;-66
2022/05/07 01:00:35;;;;;;;7.72;3.78;;;;;;;20.20;39.14;100073.59;344986;28;1061;-66
2022/05/07 01:00:47;;;;;;;7.03;3.67;;;;;;;20.19;39.20;100076.38;344735;28;1141;-66
2022/05/07 01:00:59;;;;;;;5.47;3.45;;;;;;;20.17;39.08;100073.81;345015;28;1090;-66
2022/05/07 01:01:11;;;;;;;6.25;3.38;;;;;;;20.21;38.99;100075.31;344340;28;1046;-65
2022/05/07 01:01:23;;;;;;;6.30;3.35;;;;;;;20.25;38.96;100076.81;344941;28;1257;-66
2022/05/07 01:01:35;;;;;;;5.82;3.45;;;;;;;20.27;38.88;100077.53;343973;28;1189;-67
2022/05/07 01:01:48;;;;;;;5.30;3.50;;;;;;;20.25;38.92;100079.44;343999;28;1291;-66
2022/05/07 01:02:00;;;;;;;5.45;3.30;;;;;;;20.27;39.03;100079.34;343948;28;1178;-66
2022/05/07 01:02:12;;;;;;;5.53;3.15;;;;;;;20.30;38.78;100080.00;344192;28;745;-67
2022/05/07 01:02:24;;;;;;;5.20;3.20;;;;;;;20.27;38.74;100080.19;343385;28;1574;-66
2022/05/07 01:02:37;;;;;;;4.65;3.30;;;;;;;20.28;38.71;100081.03;343762;28;1154;-66